Time;durP1;ratioP1;P1;durP2;ratioP2;P2;SDS_P1;SDS_P2;PMS_P1;PMS_P2;Temp;Humidity;BMP_temperature;BMP_pressure;BME280_temperature;BME280_humidity;BME280_pressure;Samples;Min_cycle;Max_cycle;Signal;HPM_P1;HPM_P2
2024/02/20 00:00:56;;;;;;;9.03;6.47;;;11.20;99.90;;;;;;5018398;28;20235;-69
2024/02/20 00:03:22;;;;;;;8.40;6.00;;;11.20;99.90;;;;;;5013483;28;20239;-69
2024/02/20 00:05:47;;;;;;;9.60;5.43;;;11.20;99.90;;;;;;5018591;28;20192;-69
2024/02/20 00:08:13;;;;;;;8.80;5.73;;;11.20;99.90;;;;;;5015398;28;20195;-68
2024/02/20 00:10:38;;;;;;;8.03;5.40;;;11.30;99.90;;;;;;5015314;28;20176;-67
2024/02/20 00:13:04;;;;;;;7.70;5.87;;;11.10;99.90;;;;;;5013302;28;20184;-68
2024/02/20 00:15:30;;;;;;;10.37;6.20;;;11.10;99.90;;;;;;5018934;28;20228;-68
2024/02/20 00:17:55;;;;;;;9.93;6.10;;;11.20;99.90;;;;;;5010161;28;20170;-68
2024/02/20 00:20:21;;;;;;;8.43;4.80;;;11.20;99.90;;;;;;5016130;28;20185;-69
2024/02/20 00:22:46;;;;;;;10.13;5.90;;;11.10;99.90;;;;;;5020814;28;20280;-69
2024/02/20 00:25:12;;;;;;;8.50;5.23;;;11.00;99.90;;;;;;5018912;28;20224;-69
2024/02/20 00:27:38;;;;;;;8.87;5.83;;;11.00;99.90;;;;;;5019770;28;20544;-68
2024/02/20 00:30:04;;;;;;;7.50;5.53;;;10.90;99.90;;;;;;5018162;28;20242;-68
2024/02/20 00:32:30;;;;;;;8.63;6.20;;;10.90;99.90;;;;;;5019778;28;20463;-69
2024/02/20 00:34:56;;;;;;;7.20;5.23;;;10.90;99.90;;;;;;5017712;28;20431;-69
2024/02/20 00:37:22;;;;;;;8.20;5.10;;;10.80;99.90;;;;;;5015963;28;20464;-69
2024/02/20 00:39:47;;;;;;;9.33;5.50;;;10.80;99.90;;;;;;5014954;28;20189;-68
2024/02/20 00:42:13;;;;;;;11.23;6.60;;;10.80;99.90;;;;;;5017673;28;20712;-68
2024/02/20 00:44:40;;;;;;;9.13;5.93;;;10.90;99.90;;;;;;5017562;28;20678;-68
2024/02/20 00:47:09;;;;;;;8.80;5.73;;;10.80;99.90;;;;;;5011403;28;20451;-68
2024/02/20 00:49:38;;;;;;;10.57;6.00;;;10.90;99.90;;;;;;5017080;28;20947;-68
2024/02/20 00:52:04;;;;;;;8.60;5.43;;;11.00;99.90;;;;;;5016271;28;20423;-68
2024/02/20 00:54:29;;;;;;;7.97;5.43;;;11.10;99.90;;;;;;5014307;28;20465;-69
2024/02/20 00:56:55;;;;;;;9.97;6.20;;;11.00;99.90;;;;;;5015289;28;20294;-68
2024/02/20 00:59:20;;;;;;;12.83;6.63;;;10.90;99.90;;;;;;5011146;28;20312;-69
2024/02/20 01:01:47;;;;;;;10.20;6.17;;;10.90;99.90;;;;;;5017098;28;20184;-69
2024/02/20 01:04:12;;;;;;;8.77;5.90;;;10.90;99.90;;;;;;5016572;28;20196;-69
2024/02/20 01:06:39;;;;;;;10.90;5.80;;;10.80;99.90;;;;;;5017092;28;20423;-67
2024/02/20 01:09:04;;;;;;;9.63;6.03;;;10.80;99.90;;;;;;5017401;28;20217;-67
2024/02/20 01:11:30;;;;;;;10.50;7.30;;;10.80;99.90;;;;;;5017898;28;21013;-69
2024/02/20 01:13:56;;;;;;;8.87;6.23;;;10.80;99.90;;;;;;5013144;28;20211;-68
2024/02/20 01:16:22;;;;;;;9.73;5.67;;;10.80;99.90;;;;;;5017449;28;20204;-68
2024/02/20 01:18:47;;;;;;;8.67;5.37;;;10.70;99.90;;;;;;5011670;28;20196;-68
2024/02/20 01:21:13;;;;;;;7.93;5.23;;;10.70;99.90;;;;;;5016454;28;20684;-68
2024/02/20 01:23:38;;;;;;;9.80;4.93;;;10.60;99.90;;;;;;5017569;28;20219;-68
2024/02/20 01:26:04;;;;;;;8.20;5.17;;;10.60;99.90;;;;;;5016880;28;20243;-68
2024/02/20 01:28:29;;;;;;;7.63;5.10;;;10.60;99.90;;;;;;5011831;28;20250;-68
2024/02/20 01:30:55;;;;;;;7.13;5.60;;;10.60;99.90;;;;;;5012517;28;20699;-68
2024/02/20 01:33:20;;;;;;;8.93;5.60;;;10.60;99.90;;;;;;5010287;28;20650;-68
2024/02/20 01:35:46;;;;;;;9.13;5.43;;;10.60;99.90;;;;;;5011354;28;20713;-68
2024/02/20 01:38:12;;;;;;;6.30;4.27;;;10.60;99.90;;;;;;5015529;28;20803;-68
2024/02/20 01:40:38;;;;;;;5.50;4.10;;;10.60;99.90;;;;;;5014440;28;20220;-68
2024/02/20 01:43:05;;;;;;;8.37;4.43;;;10.60;99.90;;;;;;5014914;28;20494;-68
2024/02/20 01:45:31;;;;;;;7.00;4.60;;;10.60;99.90;;;;;;5012183;28;20428;-68
2024/02/20 01:48:03;;;;;;;9.33;3.90;;;10.60;99.90;;;;;;5013537;28;20426;-68
2024/02/20 01:50:33;;;;;;;6.13;3.90;;;10.50;99.90;;;;;;5015414;28;20407;-68
2024/02/20 01:52:59;;;;;;;5.50;3.80;;;10.50;99.90;;;;;;5011497;28;20504;-68
2024/02/20 01:55:25;;;;;;;6.70;4.23;;;10.30;99.90;;;;;;5018995;28;20473;-68
2024/02/20 01:57:50;;;;;;;8.43;4.10;;;10.40;99.90;;;;;;5019155;28;21047;-68
2024/02/20 02:00:17;;;;;;;4.20;3.47;;;10.40;99.90;;;;;;5015074;28;20424;-68
2024/02/20 02:02:43;;;;;;;7.83;4.23;;;10.40;99.90;;;;;;5015740;28;20209;-68
2024/02/20 02:05:08;;;;;;;4.40;3.50;;;10.40;99.90;;;;;;5013678;28;20485;-68
2024/02/20 02:07:34;;;;;;;4.47;3.57;;;10.40;99.90;;;;;;5012291;28;20185;-67
2024/02/20 02:09:59;;;;;;;11.63;4.17;;;10.40;99.90;;;;;;5011384;28;20647;-68
2024/02/20 02:12:27;;;;;;;5.20;3.87;;;10.40;99.90;;;;;;5019699;28;20685;-68
2024/02/20 02:14:53;;;;;;;7.00;3.30;;;10.40;99.90;;;;;;5011066;28;20267;-68
2024/02/20 02:17:18;;;;;;;5.53;3.60;;;10.40;99.90;;;;;;5015085;28;20471;-69
2024/02/20 02:19:44;;;;;;;7.63;3.03;;;10.20;99.90;;;;;;5018341;28;20211;-68
2024/02/20 02:22:09;;;;;;;7.47;4.07;;;10.30;99.90;;;;;;5015882;28;20185;-69
2024/02/20 02:24:36;;;;;;;5.60;3.50;;;10.30;99.90;;;;;;5013758;28;20279;-68
2024/02/20 02:27:02;;;;;;;4.53;3.13;;;10.30;99.90;;;;;;5014866;28;20185;-68
2024/02/20 02:29:28;;;;;;;5.60;3.30;;;10.30;99.90;;;;;;5018635;28;20431;-68
2024/02/20 02:31:55;;;;;;;8.27;4.00;;;10.30;99.90;;;;;;5010520;28;20428;-68
2024/02/20 02:34:24;;;;;;;5.30;3.37;;;10.20;99.90;;;;;;5027565;28;20530;-68
2024/02/20 02:36:50;;;;;;;5.60;3.40;;;10.10;99.90;;;;;;5016436;28;20516;-68
2024/02/20 02:39:20;;;;;;;6.47;3.30;;;10.20;99.90;;;;;;5012516;28;20501;-68
2024/02/20 02:41:46;;;;;;;4.40;2.97;;;10.20;99.90;;;;;;5012199;28;20431;-68
2024/02/20 02:44:12;;;;;;;8.60;3.50;;;10.20;99.90;;;;;;5015463;28;20435;-68
2024/02/20 02:46:37;;;;;;;4.83;3.13;;;10.20;99.90;;;;;;5022338;28;20184;-68
2024/02/20 02:49:03;;;;;;;5.57;3.00;;;10.20;99.90;;;;;;5011105;28;20183;-68
2024/02/20 02:51:28;;;;;;;6.37;2.87;;;10.20;99.90;;;;;;5017705;28;20188;-68
2024/02/20 02:53:54;;;;;;;7.90;3.20;;;10.20;99.90;;;;;;5013089;28;20204;-68
2024/02/20 02:56:22;;;;;;;5.53;2.70;;;10.20;99.90;;;;;;5013761;28;20205;-68
2024/02/20 02:58:48;;;;;;;8.53;2.63;;;10.10;99.90;;;;;;5009939;28;20177;-68
2024/02/20 03:01:13;;;;;;;4.83;3.03;;;10.10;99.90;;;;;;5008175;28;20419;-68
2024/02/20 03:03:39;;;;;;;5.63;2.67;;;10.00;99.90;;;;;;5006644;28;20685;-68
2024/02/20 03:06:06;;;;;;;4.10;2.70;;;10.00;99.90;;;;;;5008630;28;20188;-68
2024/02/20 03:08:33;;;;;;;6.13;3.30;;;10.00;99.90;;;;;;5012812;28;20173;-68
2024/02/20 03:10:59;;;;;;;7.97;4.10;;;10.00;99.90;;;;;;5017744;28;20438;-68
2024/02/20 03:13:24;;;;;;;3.77;3.23;;;10.00;99.90;;;;;;5008652;28;20435;-69
2024/02/20 03:15:50;;;;;;;6.00;3.10;;;9.90;99.90;;;;;;5012583;28;20438;-68
2024/02/20 03:18:15;;;;;;;3.80;2.47;;;9.80;99.90;;;;;;5012654;28;20192;-68
2024/02/20 03:20:42;;;;;;;5.30;3.60;;;9.80;99.90;;;;;;5014605;28;20633;-68
2024/02/20 03:23:08;;;;;;;7.33;3.13;;;9.80;99.90;;;;;;5014579;28;20177;-68
2024/02/20 03:25:34;;;;;;;4.67;3.23;;;9.70;99.90;;;;;;5016338;28;20454;-68
2024/02/20 03:28:01;;;;;;;4.93;2.60;;;9.80;99.90;;;;;;5018874;28;20696;-68
2024/02/20 03:30:28;;;;;;;5.13;2.97;;;9.80;99.90;;;;;;5020705;28;20902;-68
2024/02/20 03:32:54;;;;;;;7.43;2.77;;;9.90;99.90;;;;;;5018073;28;20423;-68
2024/02/20 03:35:22;;;;;;;4.77;2.53;;;10.00;99.90;;;;;;5016939;28;20510;-68
2024/02/20 03:37:49;;;;;;;5.43;2.40;;;9.90;99.90;;;;;;5019524;28;20219;-69
2024/02/20 03:40:16;;;;;;;7.13;3.03;;;9.90;99.90;;;;;;5018356;28;20419;-68
2024/02/20 03:42:42;;;;;;;7.80;3.63;;;9.90;99.90;;;;;;5018937;28;20419;-68
2024/02/20 03:45:08;;;;;;;6.70;2.90;;;9.90;99.90;;;;;;5016229;28;21000;-68
2024/02/20 03:47:34;;;;;;;6.97;3.00;;;9.80;99.90;;;;;;5015550;28;20497;-68
2024/02/20 03:49:59;;;;;;;7.30;2.40;;;9.90;99.90;;;;;;5020629;28;20481;-68
2024/02/20 03:52:25;;;;;;;5.80;2.70;;;9.80;99.90;;;;;;5013488;28;20192;-68
2024/02/20 03:54:50;;;;;;;10.30;3.10;;;9.80;99.90;;;;;;5020185;28;20208;-68
2024/02/20 03:57:17;;;;;;;12.37;2.13;;;9.70;99.90;;;;;;5012791;28;20208;-68
2024/02/20 03:59:43;;;;;;;9.13;2.63;;;9.80;99.90;;;;;;5011340;28;20181;-68
2024/02/20 04:02:08;;;;;;;7.30;2.37;;;9.80;99.90;;;;;;5012256;28;20424;-69
2024/02/20 04:04:34;;;;;;;6.07;2.43;;;9.70;99.90;;;;;;5015179;28;20969;-68
2024/02/20 04:07:01;;;;;;;11.33;2.67;;;9.70;99.90;;;;;;5015943;28;20181;-68
2024/02/20 04:09:27;;;;;;;8.40;3.93;;;9.80;99.90;;;;;;5017295;28;20720;-68
2024/02/20 04:11:53;;;;;;;6.67;2.97;;;9.80;99.90;;;;;;5015776;28;20434;-68
2024/02/20 04:14:19;;;;;;;7.67;2.90;;;9.70;99.90;;;;;;5014117;28;20455;-68
2024/02/20 04:16:45;;;;;;;8.37;2.57;;;9.80;99.90;;;;;;5019509;28;20540;-68
2024/02/20 04:19:11;;;;;;;6.37;1.90;;;9.70;99.90;;;;;;5012403;28;20177;-67
2024/02/20 04:21:37;;;;;;;6.30;2.30;;;9.80;99.90;;;;;;5016007;28;20542;-67
2024/02/20 04:24:03;;;;;;;4.50;2.70;;;9.80;99.90;;;;;;5015412;28;20452;-68
2024/02/20 04:26:28;;;;;;;6.40;2.20;;;9.80;99.90;;;;;;5015227;28;20201;-68
2024/02/20 04:28:54;;;;;;;12.73;3.70;;;9.80;99.90;;;;;;5017251;28;20184;-67
2024/02/20 04:31:19;;;;;;;5.23;2.07;;;9.80;99.90;;;;;;5011860;28;20250;-67
2024/02/20 04:33:45;;;;;;;8.90;2.63;;;9.90;99.90;;;;;;5012911;28;20217;-67
2024/02/20 04:36:10;;;;;;;8.10;2.90;;;9.90;99.90;;;;;;5013985;28;20564;-68
2024/02/20 04:38:36;;;;;;;7.80;2.83;;;9.80;99.90;;;;;;5019999;28;20185;-68
2024/02/20 04:41:01;;;;;;;6.27;2.90;;;9.90;99.90;;;;;;5020394;28;20568;-67
2024/02/20 04:43:27;;;;;;;6.00;2.83;;;9.90;99.90;;;;;;5013416;28;20543;-68
2024/02/20 04:45:53;;;;;;;10.90;2.70;;;9.90;99.90;;;;;;5016901;28;20195;-68
2024/02/20 04:48:18;;;;;;;6.33;2.93;;;9.80;99.90;;;;;;5014021;28;20193;-68
2024/02/20 04:50:44;;;;;;;11.77;3.13;;;9.70;99.90;;;;;;5015261;28;20197;-68
2024/02/20 04:53:09;;;;;;;5.67;3.03;;;9.80;99.90;;;;;;5017533;28;20214;-68
2024/02/20 04:55:36;;;;;;;7.07;3.80;;;9.80;99.90;;;;;;5013830;28;20220;-68
2024/02/20 04:58:02;;;;;;;7.03;3.30;;;9.90;99.90;;;;;;5013509;28;20247;-68
2024/02/20 05:00:28;;;;;;;8.07;2.93;;;9.80;99.90;;;;;;5012067;28;21027;-68
2024/02/20 05:02:53;;;;;;;5.73;2.87;;;9.90;99.90;;;;;;5018283;28;20411;-68
2024/02/20 05:05:19;;;;;;;8.30;4.00;;;9.90;99.90;;;;;;5010871;28;20205;-68
2024/02/20 05:07:44;;;;;;;5.93;2.93;;;9.90;99.90;;;;;;5015666;28;20213;-68
2024/02/20 05:10:10;;;;;;;6.73;3.50;;;9.90;99.90;;;;;;5011592;28;20185;-68
2024/02/20 05:12:37;;;;;;;6.20;3.43;;;9.90;99.90;;;;;;5016474;28;20193;-68
2024/02/20 05:15:03;;;;;;;6.70;3.17;;;9.90;99.90;;;;;;5015714;28;20858;-68
2024/02/20 05:17:28;;;;;;;7.03;3.87;;;9.90;99.90;;;;;;5016621;28;20474;-68
2024/02/20 05:19:54;;;;;;;5.73;3.23;;;9.90;99.90;;;;;;5014299;28;20432;-68
2024/02/20 05:22:20;;;;;;;7.37;3.07;;;9.70;99.90;;;;;;5012801;28;20211;-68
2024/02/20 05:24:45;;;;;;;13.63;4.10;;;9.80;99.90;;;;;;5016832;28;20200;-68
2024/02/20 05:27:12;;;;;;;7.23;3.47;;;9.80;99.90;;;;;;5020399;28;20234;-67
2024/02/20 05:29:38;;;;;;;11.20;3.70;;;9.80;99.90;;;;;;5018819;28;20185;-67
2024/02/20 05:32:03;;;;;;;4.77;2.80;;;9.70;99.90;;;;;;5016556;28;20814;-68
2024/02/20 05:34:29;;;;;;;6.40;3.80;;;9.70;99.90;;;;;;5016547;28;20212;-68
2024/02/20 05:36:55;;;;;;;8.80;3.97;;;9.60;99.90;;;;;;5015554;28;20945;-68
2024/02/20 05:39:20;;;;;;;7.33;3.27;;;9.70;99.90;;;;;;5016461;28;20714;-68
2024/02/20 05:41:46;;;;;;;9.93;3.20;;;9.60;99.90;;;;;;5009083;28;20211;-68
2024/02/20 05:44:12;;;;;;;12.43;3.90;;;9.70;99.90;;;;;;5014861;28;20249;-68
2024/02/20 05:46:39;;;;;;;6.43;3.50;;;9.70;99.90;;;;;;5010000;28;20203;-68
2024/02/20 05:49:05;;;;;;;6.70;3.50;;;9.70;99.90;;;;;;5018424;28;21317;-68
2024/02/20 05:51:31;;;;;;;7.43;3.80;;;9.70;99.90;;;;;;5010823;28;20443;-68
2024/02/20 05:53:56;;;;;;;11.20;4.33;;;9.70;99.90;;;;;;5020269;28;20208;-68
2024/02/20 05:56:23;;;;;;;11.30;4.30;;;9.50;99.90;;;;;;5011775;28;20698;-69
2024/02/20 05:58:49;;;;;;;9.83;4.20;;;9.50;99.90;;;;;;5017240;28;20547;-69
2024/02/20 06:01:15;;;;;;;6.77;3.90;;;9.50;99.90;;;;;;5019844;28;20429;-69
2024/02/20 06:03:41;;;;;;;6.50;3.70;;;9.40;99.90;;;;;;5015217;28;20594;-69
2024/02/20 06:06:08;;;;;;;8.30;4.07;;;9.40;99.90;;;;;;5020686;28;20522;-68
2024/02/20 06:08:34;;;;;;;8.23;4.00;;;9.40;99.90;;;;;;5008751;28;20434;-67
2024/02/20 06:11:00;;;;;;;12.87;4.70;;;9.40;99.90;;;;;;5018360;28;20754;-69
2024/02/20 06:13:26;;;;;;;6.80;3.43;;;9.40;99.90;;;;;;5016248;28;20534;-68
2024/02/20 06:15:51;;;;;;;6.63;3.40;;;9.40;99.90;;;;;;5016183;28;20200;-68
2024/02/20 06:18:17;;;;;;;11.17;4.47;;;9.50;99.90;;;;;;5015093;28;20191;-68
2024/02/20 06:20:45;;;;;;;6.63;4.07;;;9.40;99.90;;;;;;5014027;28;20186;-68
2024/02/20 06:23:11;;;;;;;5.93;3.60;;;9.40;99.90;;;;;;5020461;28;20437;-68
2024/02/20 06:25:37;;;;;;;10.50;4.00;;;9.40;99.90;;;;;;5020735;28;20498;-68
2024/02/20 06:28:03;;;;;;;10.60;4.87;;;9.40;99.90;;;;;;5015802;28;20428;-68
2024/02/20 06:30:29;;;;;;;10.03;4.37;;;9.30;99.90;;;;;;5016373;28;20196;-67
2024/02/20 06:32:55;;;;;;;11.87;4.60;;;9.30;99.90;;;;;;5014731;28;20436;-68
2024/02/20 06:35:20;;;;;;;10.73;5.70;;;9.30;99.90;;;;;;5015406;28;20443;-67
2024/02/20 06:37:46;;;;;;;8.30;4.23;;;9.40;99.90;;;;;;5016630;28;20240;-68
2024/02/20 06:40:11;;;;;;;11.00;3.93;;;9.30;99.90;;;;;;5020188;28;20180;-68
2024/02/20 06:42:37;;;;;;;9.93;4.30;;;9.30;99.90;;;;;;5018915;28;20264;-68
2024/02/20 06:45:03;;;;;;;8.70;4.33;;;9.20;99.90;;;;;;5013360;28;20216;-68
2024/02/20 06:47:28;;;;;;;9.97;4.57;;;9.10;99.90;;;;;;5017686;28;20642;-68
2024/02/20 06:49:54;;;;;;;10.03;3.90;;;9.10;99.90;;;;;;5015673;28;20184;-68
2024/02/20 06:52:19;;;;;;;6.87;4.30;;;9.10;99.90;;;;;;5017182;28;20199;-68
2024/02/20 06:54:45;;;;;;;9.37;4.60;;;9.20;99.90;;;;;;5010064;28;20219;-68
2024/02/20 06:57:10;;;;;;;8.10;4.70;;;9.20;99.90;;;;;;5011043;28;20263;-68
2024/02/20 06:59:38;;;;;;;9.53;4.63;;;9.20;99.90;;;;;;5010394;28;20235;-67
2024/02/20 07:02:03;;;;;;;10.40;5.17;;;9.30;99.90;;;;;;5011262;28;20215;-68
2024/02/20 07:04:29;;;;;;;9.03;4.87;;;9.30;99.90;;;;;;5009109;28;20483;-68
2024/02/20 07:06:54;;;;;;;11.13;4.67;;;9.20;99.90;;;;;;5013501;28;20186;-67
2024/02/20 07:09:22;;;;;;;12.33;5.07;;;9.30;99.90;;;;;;5019657;28;20180;-67
2024/02/20 07:11:48;;;;;;;8.27;4.50;;;9.40;99.90;;;;;;5011142;28;20188;-67
2024/02/20 07:14:15;;;;;;;11.13;5.47;;;9.30;99.90;;;;;;5015583;28;20452;-68
2024/02/20 07:16:44;;;;;;;13.00;4.50;;;9.30;99.90;;;;;;5016618;28;20689;-67
2024/02/20 07:19:12;;;;;;;12.53;5.20;;;9.30;99.90;;;;;;5015422;28;20453;-67
2024/02/20 07:21:38;;;;;;;10.27;5.43;;;9.40;99.90;;;;;;5011055;28;20431;-68
2024/02/20 07:24:04;;;;;;;9.20;4.90;;;9.40;99.90;;;;;;5017655;28;20448;-68
2024/02/20 07:26:29;;;;;;;15.07;5.63;;;9.40;99.90;;;;;;5015036;28;20242;-67
2024/02/20 07:28:56;;;;;;;11.20;5.70;;;9.50;99.90;;;;;;5017943;28;20568;-69
2024/02/20 07:31:23;;;;;;;10.73;5.17;;;9.40;99.90;;;;;;5014151;28;20192;-69
2024/02/20 07:33:48;;;;;;;13.33;5.20;;;9.50;99.90;;;;;;5015120;28;20453;-69
2024/02/20 07:36:15;;;;;;;12.07;5.40;;;9.50;99.90;;;;;;5014588;28;20461;-69
2024/02/20 07:38:43;;;;;;;11.30;5.97;;;9.50;99.90;;;;;;5011554;28;20754;-69
2024/02/20 07:41:09;;;;;;;13.90;6.70;;;9.50;99.90;;;;;;5026086;28;20437;-69
2024/02/20 07:43:36;;;;;;;11.03;6.20;;;9.50;99.90;;;;;;5018332;28;20459;-69
2024/02/20 07:46:02;;;;;;;11.60;6.20;;;9.40;99.90;;;;;;5017621;28;20435;-68
2024/02/20 07:48:27;;;;;;;12.80;6.87;;;9.50;99.90;;;;;;5016325;28;21080;-68
2024/02/20 07:50:53;;;;;;;12.53;7.47;;;9.50;99.90;;;;;;5020154;28;20435;-67
2024/02/20 07:53:18;;;;;;;14.43;7.30;;;9.50;99.90;;;;;;5014008;28;20200;-67
2024/02/20 07:55:44;;;;;;;17.60;7.93;;;9.60;99.90;;;;;;5012509;28;20254;-68
2024/02/20 07:58:10;;;;;;;14.70;6.30;;;9.60;99.90;;;;;;5022459;28;20685;-69
2024/02/20 08:00:36;;;;;;;11.73;6.37;;;9.60;99.90;;;;;;5019417;28;20647;-67
2024/02/20 08:03:02;;;;;;;11.80;6.17;;;9.70;99.90;;;;;;5022657;28;20606;-68
2024/02/20 08:05:27;;;;;;;10.80;5.77;;;9.70;99.90;;;;;;5017355;28;20482;-68
2024/02/20 08:07:54;;;;;;;14.77;6.60;;;9.70;99.90;;;;;;5017513;28;20493;-68
2024/02/20 08:10:20;;;;;;;12.23;5.87;;;9.70;99.90;;;;;;5012487;28;20181;-68
2024/02/20 08:12:45;;;;;;;16.77;6.43;;;9.70;99.90;;;;;;5015510;28;20427;-68
2024/02/20 08:15:11;;;;;;;13.50;6.43;;;9.60;99.90;;;;;;5016098;28;20660;-68
2024/02/20 08:17:37;;;;;;;11.70;6.80;;;9.60;99.90;;;;;;5016502;28;20640;-68
2024/02/20 08:20:06;;;;;;;11.97;7.10;;;9.60;99.90;;;;;;5011180;28;20178;-68
2024/02/20 08:22:32;;;;;;;13.10;6.70;;;9.60;99.90;;;;;;5024651;28;20177;-68
2024/02/20 08:24:57;;;;;;;16.00;8.23;;;9.60;99.90;;;;;;5018412;28;20456;-67
2024/02/20 08:27:24;;;;;;;11.47;7.57;;;9.70;99.90;;;;;;5013968;28;21052;-68
2024/02/20 08:29:50;;;;;;;15.47;7.63;;;9.70;99.90;;;;;;5014208;28;20264;-68
2024/02/20 08:32:15;;;;;;;14.90;7.87;;;9.80;99.90;;;;;;5018667;28;20525;-68
2024/02/20 08:34:42;;;;;;;11.23;6.83;;;9.80;99.90;;;;;;5021434;28;20540;-68
2024/02/20 08:37:08;;;;;;;16.43;7.70;;;9.80;99.90;;;;;;5024644;28;20196;-68
2024/02/20 08:39:33;;;;;;;15.93;7.33;;;9.80;99.90;;;;;;5017955;28;20440;-69
2024/02/20 08:41:59;;;;;;;16.60;7.70;;;9.90;99.90;;;;;;5023611;28;20234;-69
2024/02/20 08:44:24;;;;;;;16.47;7.50;;;9.90;99.90;;;;;;5027371;28;20204;-69
2024/02/20 08:46:50;;;;;;;14.60;7.10;;;9.90;99.90;;;;;;5020307;28;20185;-69
2024/02/20 08:49:15;;;;;;;15.67;7.77;;;10.00;99.90;;;;;;5024339;28;20200;-68
2024/02/20 08:51:42;;;;;;;16.40;7.40;;;10.00;99.90;;;;;;5023919;28;20197;-69
2024/02/20 08:54:08;;;;;;;18.17;7.10;;;10.10;99.90;;;;;;5021234;28;20669;-69
2024/02/20 08:56:35;;;;;;;15.47;7.80;;;10.10;99.90;;;;;;5018922;28;20467;-69
2024/02/20 08:59:00;;;;;;;21.13;8.60;;;10.10;99.90;;;;;;5011760;28;20447;-69
2024/02/20 09:01:26;;;;;;;13.03;7.77;;;10.10;99.90;;;;;;5021024;28;20513;-68
2024/02/20 09:03:54;;;;;;;12.60;7.37;;;10.10;99.90;;;;;;5020342;28;20738;-69
2024/02/20 09:06:19;;;;;;;19.40;8.33;;;10.10;99.90;;;;;;5023392;28;20438;-68
2024/02/20 09:08:45;;;;;;;16.53;7.80;;;10.10;99.90;;;;;;5015153;28;20424;-69
2024/02/20 09:11:11;;;;;;;18.67;8.53;;;10.10;99.90;;;;;;5018435;28;20391;-68
2024/02/20 09:13:37;;;;;;;13.93;6.90;;;9.80;99.90;;;;;;5020135;28;20674;-70
2024/02/20 09:16:03;;;;;;;13.03;8.50;;;9.90;99.90;;;;;;5019678;28;20307;-69
2024/02/20 09:18:30;;;;;;;20.53;9.20;;;9.90;99.90;;;;;;5014505;28;20522;-69
2024/02/20 09:20:56;;;;;;;13.23;6.77;;;10.00;99.90;;;;;;5016159;28;20248;-70
2024/02/20 09:23:21;;;;;;;14.83;7.60;;;10.20;99.90;;;;;;5014513;28;20438;-69
2024/02/20 09:25:47;;;;;;;13.13;8.30;;;10.30;99.90;;;;;;5016704;28;20263;-67
2024/02/20 09:28:13;;;;;;;17.37;7.83;;;10.10;99.90;;;;;;5017354;28;20208;-68
2024/02/20 09:30:39;;;;;;;17.53;8.70;;;10.20;99.90;;;;;;5013555;28;20204;-70
2024/02/20 09:33:05;;;;;;;17.37;7.47;;;10.10;99.90;;;;;;5016435;28;20467;-68
2024/02/20 09:35:30;;;;;;;13.90;8.07;;;10.00;99.90;;;;;;5008700;28;20466;-68
2024/02/20 09:37:56;;;;;;;19.00;8.70;;;10.10;99.90;;;;;;5013993;28;20208;-68
2024/02/20 09:40:22;;;;;;;18.33;8.60;;;10.10;99.90;;;;;;5013393;28;20667;-67
2024/02/20 09:42:51;;;;;;;13.70;8.00;;;10.10;99.90;;;;;;5016948;28;20749;-68
2024/02/20 09:45:19;;;;;;;15.67;7.60;;;10.30;99.90;;;;;;5010521;28;20201;-68
2024/02/20 09:47:47;;;;;;;18.40;9.83;;;10.50;99.90;;;;;;5010189;28;20539;-68
2024/02/20 09:50:19;;;;;;;12.90;7.43;;;10.60;99.90;;;;;;5016116;28;20921;-68
2024/02/20 09:52:49;;;;;;;17.53;8.07;;;10.60;99.90;;;;;;5012317;28;20937;-68
2024/02/20 09:55:18;;;;;;;13.93;9.33;;;10.50;99.90;;;;;;5016563;28;20462;-68
2024/02/20 09:57:44;;;;;;;16.40;9.10;;;10.60;99.90;;;;;;5015023;28;20558;-69
2024/02/20 10:00:11;;;;;;;16.73;8.20;;;10.60;99.90;;;;;;5017204;28;20535;-68
2024/02/20 10:02:38;;;;;;;17.17;10.07;;;10.60;99.90;;;;;;5014952;28;20239;-69
2024/02/20 10:05:05;;;;;;;16.07;9.23;;;10.60;99.90;;;;;;5010083;28;20471;-68
2024/02/20 10:07:38;;;;;;;18.90;8.77;;;10.60;99.90;;;;;;5017788;28;20987;-68
2024/02/20 10:10:07;;;;;;;21.13;8.80;;;10.70;99.90;;;;;;5019468;28;20546;-68
2024/02/20 10:12:36;;;;;;;17.70;7.73;;;10.70;99.90;;;;;;5008808;28;20420;-69
2024/02/20 10:15:09;;;;;;;14.53;8.53;;;10.70;99.90;;;;;;5008677;28;20867;-68
2024/02/20 10:17:38;;;;;;;18.33;9.13;;;10.70;99.90;;;;;;5033207;28;20474;-67
2024/02/20 10:20:13;;;;;;;17.00;8.23;;;10.70;99.90;;;;;;5012489;28;20432;-67
2024/02/20 10:22:40;;;;;;;27.87;7.93;;;10.80;99.90;;;;;;5011786;28;20407;-68
2024/02/20 10:25:08;;;;;;;15.13;8.27;;;10.90;99.90;;;;;;5017464;28;20937;-69
2024/02/20 10:27:37;;;;;;;15.40;8.00;;;10.90;99.90;;;;;;5015087;28;20439;-69
2024/02/20 10:30:07;;;;;;;17.90;8.33;;;10.90;99.90;;;;;;5016545;28;21156;-69
2024/02/20 10:32:36;;;;;;;22.53;8.30;;;10.90;99.90;;;;;;5011900;28;20446;-69
2024/02/20 10:35:03;;;;;;;16.40;8.17;;;11.00;99.90;;;;;;5010771;28;20875;-68
2024/02/20 10:37:28;;;;;;;13.60;8.10;;;11.00;99.90;;;;;;5012840;28;20463;-69
2024/02/20 10:40:08;;;;;;;16.83;8.17;;;11.20;99.90;;;;;;5016582;28;20498;-69
2024/02/20 10:42:37;;;;;;;18.00;7.83;;;11.40;99.90;;;;;;5007530;28;20232;-68
2024/02/20 10:45:11;;;;;;;14.23;9.53;;;11.50;99.90;;;;;;5014635;28;21020;-68
2024/02/20 10:47:44;;;;;;;15.30;8.10;;;11.70;99.90;;;;;;5013713;28;20569;-68
2024/02/20 10:50:11;;;;;;;21.90;9.60;;;11.70;99.90;;;;;;5011508;28;21135;-68
2024/02/20 10:52:37;;;;;;;17.30;8.57;;;11.70;99.90;;;;;;5018453;28;20578;-68
2024/02/20 10:55:07;;;;;;;23.90;9.80;;;11.70;99.90;;;;;;5020733;28;20532;-68
2024/02/20 10:57:37;;;;;;;11.03;9.17;;;11.70;99.90;;;;;;5021039;28;20215;-68
2024/02/20 11:00:07;;;;;;;23.20;10.27;;;11.70;99.90;;;;;;5022210;28;20435;-68
2024/02/20 11:02:35;;;;;;;17.00;8.83;;;11.80;99.90;;;;;;5018061;28;20512;-68
2024/02/20 11:05:01;;;;;;;19.43;8.17;;;11.80;99.90;;;;;;5012767;28;20843;-69
2024/02/20 11:07:28;;;;;;;18.20;8.97;;;11.90;99.90;;;;;;5024735;28;20438;-68
2024/02/20 11:10:17;;;;;;;18.30;7.50;;;11.90;99.90;;;;;;5023021;28;20181;-70
2024/02/20 11:12:43;;;;;;;15.87;10.17;;;11.80;99.90;;;;;;5015231;28;20739;-69
2024/02/20 11:15:11;;;;;;;12.40;8.10;;;11.80;99.90;;;;;;5017695;28;20478;-69
2024/02/20 11:17:37;;;;;;;15.33;7.80;;;11.80;99.90;;;;;;5014040;28;20466;-69
2024/02/20 11:20:14;;;;;;;13.83;7.90;;;11.80;99.90;;;;;;5019192;28;20877;-69
2024/02/20 11:22:40;;;;;;;17.57;9.03;;;11.80;99.90;;;;;;5021494;28;20920;-70
2024/02/20 11:25:10;;;;;;;16.77;8.43;;;11.90;99.90;;;;;;5018092;28;20432;-70
2024/02/20 11:27:43;;;;;;;14.53;8.93;;;11.90;99.90;;;;;;5013143;28;20196;-70
2024/02/20 11:30:19;;;;;;;14.30;9.03;;;12.00;99.90;;;;;;5017121;28;20458;-70
2024/02/20 11:32:47;;;;;;;17.53;9.13;;;12.00;99.90;;;;;;5012712;28;20958;-70
2024/02/20 11:35:32;;;;;;;15.37;8.37;;;12.10;99.90;;;;;;5010956;28;21168;-69
2024/02/20 11:37:59;;;;;;;14.07;8.30;;;12.10;99.90;;;;;;5017779;28;20471;-70
2024/02/20 11:40:26;;;;;;;13.03;6.70;;;12.00;99.90;;;;;;5021238;28;20439;-69
2024/02/20 11:42:56;;;;;;;15.90;7.53;;;11.90;99.90;;;;;;5010370;28;20420;-68
2024/02/20 11:45:24;;;;;;;18.03;7.87;;;12.00;99.90;;;;;;5010025;28;20536;-67
2024/02/20 11:48:10;;;;;;;17.67;7.33;;;11.90;99.90;;;;;;5013023;28;20424;-68
2024/02/20 11:50:37;;;;;;;18.33;7.70;;;12.10;99.90;;;;;;5012984;28;20427;-68
2024/02/20 11:53:10;;;;;;;18.17;8.10;;;12.10;99.90;;;;;;5016659;28;20458;-69
2024/02/20 11:55:40;;;;;;;13.07;7.50;;;12.40;99.90;;;;;;5017513;28;20600;-68
2024/02/20 11:58:06;;;;;;;10.57;5.70;;;12.60;99.90;;;;;;5018563;28;21492;-68
2024/02/20 12:00:37;;;;;;;13.93;5.60;;;13.00;99.90;;;;;;5017259;28;20446;-69
2024/02/20 12:03:03;;;;;;;9.60;5.87;;;13.30;99.90;;;;;;5016122;28;20477;-69
2024/02/20 12:05:37;;;;;;;11.57;6.43;;;13.20;99.90;;;;;;5016540;28;20435;-69
2024/02/20 12:08:14;;;;;;;14.00;5.50;;;13.30;99.90;;;;;;5019918;28;21032;-69
2024/02/20 12:10:40;;;;;;;10.20;5.93;;;13.30;99.90;;;;;;5017861;28;20472;-70
2024/02/20 12:13:16;;;;;;;10.20;6.20;;;13.30;99.90;;;;;;5017006;28;20489;-69
2024/02/20 12:15:49;;;;;;;9.13;6.10;;;13.00;99.90;;;;;;5019124;28;20564;-68
2024/02/20 12:18:24;;;;;;;12.10;6.13;;;13.10;99.90;;;;;;5021586;28;20804;-69
2024/02/20 12:20:50;;;;;;;12.50;5.60;;;13.80;99.90;;;;;;5013200;28;20822;-68
2024/02/20 12:23:19;;;;;;;10.23;5.17;;;15.00;99.90;;;;;;5019533;28;20502;-69
2024/02/20 12:25:49;;;;;;;11.73;5.83;;;15.30;99.90;;;;;;5019562;28;20707;-69
2024/02/20 12:28:14;;;;;;;8.60;5.17;;;15.20;99.90;;;;;;5013197;28;20454;-68
2024/02/20 12:30:41;;;;;;;10.20;4.27;;;16.00;99.90;;;;;;5012403;28;20420;-69
2024/02/20 12:33:07;;;;;;;11.40;4.90;;;16.90;99.90;;;;;;5013612;28;20208;-68
2024/02/20 12:35:32;;;;;;;7.23;4.50;;;17.10;99.90;;;;;;5016454;28;20500;-69
2024/02/20 12:37:58;;;;;;;11.83;7.43;;;16.40;99.90;;;;;;5014694;28;20988;-73
2024/02/20 12:40:25;;;;;;;16.83;7.60;;;15.90;99.90;;;;;;5013556;28;20188;-69
2024/02/20 12:42:51;;;;;;;11.03;5.73;;;15.50;99.90;;;;;;5016604;28;20238;-67